Aérodrome :
LOGIN :

S'inscrire | Disclaimer

   EN    FR    IT 

 










Légende :    VFR   VFR Marginal   IFR   IFR Intensif   IFR Très Intensif
Visi : 
Plafond : 
>= 8 km
>= 3000ft
5 à 8 km
1000 à 3000 ft
1500m à 5 km
500 à 1000 ft
800 à 1500m
200 à 500 ft
< 800m
< 200 ft
Symboles :   Orages  Brouillard  Fortes neiges  Fortes précipitations  Vent > 20 kt
SIGMETs :   Divers  Orages  Givrage  Turbulence  Onde Orograph.  Cendres Volcan.






- Altitude de l'aérodrome : 458 ft


LFSI - St-Dizier

DERNIER METAR :
  • 140030Z AUTO 13007KT CAVOK 04/03 Q0999

METARs EXPIRÉS :
  • 140000Z AUTO 12007KT CAVOK 04/03 Q0999
  • 132330Z AUTO 15007KT CAVOK 05/03 Q1000
  • 132300Z AUTO 16009KT 9999 FEW041 BKN066 06/04 Q1001
  • 132230Z AUTO 16007KT 9999 FEW039 OVC060 06/04 Q1001
  • 132200Z AUTO 16008KT CAVOK 06/04 Q1001

TAF TAF LFSI
Valide du 13 à 21h jusqu'au 14 à 21h UTC


132000Z 1321/1421 20010KT 9999 BKN020
BECMG 1400/1403 14012KT
TEMPO 1403/1407 3000 RA OVC013



MET'MAP, la Météo Aéronautique d'un coup d'oeil ! - Copyright ORBIFLY Décembre 2007 - Disclaimer

ORBIFLY MET'MAP TEAM :

Programmation & Développement : Alexandra Zaïnal
Conception & Développement : Baudouin d'Aumeries
Co-Programmation & Développement : Marc-Olivier Méhu
Soutien technique & logistique : Manuel Goepfert

Contact : metmap@orbifly.com




SOURCES & CREDITS :

   NOAA